sensor_id;sensor_type;location;lat;lon;timestamp;temperature;humidity
5639;DHT22;2841;44.526;11.360;2022-07-29T00:02:08;25.60;77.20
5639;DHT22;2841;44.526;11.360;2022-07-29T00:04:36;25.60;77.20
5639;DHT22;2841;44.526;11.360;2022-07-29T00:07:03;25.70;77.40
5639;DHT22;2841;44.526;11.360;2022-07-29T00:09:32;25.70;78.10
5639;DHT22;2841;44.526;11.360;2022-07-29T00:12:00;25.70;77.40
5639;DHT22;2841;44.526;11.360;2022-07-29T00:14:28;25.60;77.40
5639;DHT22;2841;44.526;11.360;2022-07-29T00:16:55;25.60;77.40
5639;DHT22;2841;44.526;11.360;2022-07-29T00:19:22;25.60;77.40
5639;DHT22;2841;44.526;11.360;2022-07-29T00:21:49;25.60;77.50
5639;DHT22;2841;44.526;11.360;2022-07-29T00:24:16;25.60;77.40
5639;DHT22;2841;44.526;11.360;2022-07-29T00:26:45;25.60;77.40
5639;DHT22;2841;44.526;11.360;2022-07-29T00:29:11;25.60;77.40
5639;DHT22;2841;44.526;11.360;2022-07-29T00:31:38;25.60;77.40
5639;DHT22;2841;44.526;11.360;2022-07-29T00:34:06;25.60;77.40
5639;DHT22;2841;44.526;11.360;2022-07-29T00:36:52;25.50;77.40
5639;DHT22;2841;44.526;11.360;2022-07-29T00:39:18;25.50;77.50
5639;DHT22;2841;44.526;11.360;2022-07-29T00:41:47;25.50;77.50
5639;DHT22;2841;44.526;11.360;2022-07-29T00:44:14;25.50;77.50
5639;DHT22;2841;44.526;11.360;2022-07-29T00:46:41;25.50;77.50
5639;DHT22;2841;44.526;11.360;2022-07-29T00:49:08;25.40;77.60
5639;DHT22;2841;44.526;11.360;2022-07-29T00:51:36;25.40;77.80
5639;DHT22;2841;44.526;11.360;2022-07-29T00:54:05;25.30;77.90
5639;DHT22;2841;44.526;11.360;2022-07-29T00:56:32;25.30;78.00
5639;DHT22;2841;44.526;11.360;2022-07-29T00:59:01;25.20;78.10
5639;DHT22;2841;44.526;11.360;2022-07-29T01:01:28;25.20;78.30
5639;DHT22;2841;44.526;11.360;2022-07-29T01:03:55;25.20;78.50
5639;DHT22;2841;44.526;11.360;2022-07-29T01:06:23;25.10;78.50
5639;DHT22;2841;44.526;11.360;2022-07-29T01:08:51;25.00;78.60
5639;DHT22;2841;44.526;11.360;2022-07-29T01:11:18;25.00;78.90
5639;DHT22;2841;44.526;11.360;2022-07-29T01:13:46;24.90;79.10
5639;DHT22;2841;44.526;11.360;2022-07-29T01:16:25;24.90;79.10
5639;DHT22;2841;44.526;11.360;2022-07-29T01:19:00;24.80;79.00
5639;DHT22;2841;44.526;11.360;2022-07-29T01:21:50;24.70;79.20
5639;DHT22;2841;44.526;11.360;2022-07-29T01:24:38;24.60;79.50
5639;DHT22;2841;44.526;11.360;2022-07-29T01:27:20;24.60;79.60
5639;DHT22;2841;44.526;11.360;2022-07-29T01:29:56;24.50;79.90
5639;DHT22;2841;44.526;11.360;2022-07-29T01:32:26;24.50;80.00
5639;DHT22;2841;44.526;11.360;2022-07-29T01:34:57;24.60;80.10
5639;DHT22;2841;44.526;11.360;2022-07-29T01:37:28;24.60;80.20
5639;DHT22;2841;44.526;11.360;2022-07-29T01:39:57;24.60;80.30
5639;DHT22;2841;44.526;11.360;2022-07-29T01:42:29;24.60;80.30
5639;DHT22;2841;44.526;11.360;2022-07-29T01:45:02;24.50;80.40
5639;DHT22;2841;44.526;11.360;2022-07-29T01:47:35;24.60;80.70
5639;DHT22;2841;44.526;11.360;2022-07-29T01:50:07;24.60;80.70
5639;DHT22;2841;44.526;11.360;2022-07-29T01:52:37;24.50;80.70
5639;DHT22;2841;44.526;11.360;2022-07-29T01:55:11;24.40;80.70
5639;DHT22;2841;44.526;11.360;2022-07-29T01:57:42;24.40;81.00
5639;DHT22;2841;44.526;11.360;2022-07-29T02:00:12;24.40;81.40
5639;DHT22;2841;44.526;11.360;2022-07-29T02:02:41;24.40;81.60
5639;DHT22;2841;44.526;11.360;2022-07-29T02:05:12;24.50;81.70
5639;DHT22;2841;44.526;11.360;2022-07-29T02:07:40;24.50;81.70
5639;DHT22;2841;44.526;11.360;2022-07-29T02:10:09;24.40;81.70
5639;DHT22;2841;44.526;11.360;2022-07-29T02:12:38;24.40;82.00
5639;DHT22;2841;44.526;11.360;2022-07-29T02:15:06;24.50;82.20
5639;DHT22;2841;44.526;11.360;2022-07-29T02:17:39;24.50;82.30
5639;DHT22;2841;44.526;11.360;2022-07-29T02:20:08;24.50;82.40
5639;DHT22;2841;44.526;11.360;2022-07-29T02:22:39;24.50;82.50
5639;DHT22;2841;44.526;11.360;2022-07-29T02:25:08;24.50;82.70
5639;DHT22;2841;44.526;11.360;2022-07-29T02:27:37;24.50;82.80
5639;DHT22;2841;44.526;11.360;2022-07-29T02:30:07;24.50;83.10
5639;DHT22;2841;44.526;11.360;2022-07-29T02:32:38;24.50;83.30
5639;DHT22;2841;44.526;11.360;2022-07-29T02:35:08;24.50;83.50
5639;DHT22;2841;44.526;11.360;2022-07-29T02:37:36;24.40;83.40
5639;DHT22;2841;44.526;11.360;2022-07-29T02:40:07;24.40;83.60
5639;DHT22;2841;44.526;11.360;2022-07-29T02:42:36;24.40;83.80
5639;DHT22;2841;44.526;11.360;2022-07-29T02:45:04;24.40;83.90
5639;DHT22;2841;44.526;11.360;2022-07-29T02:47:39;24.40;84.00
5639;DHT22;2841;44.526;11.360;2022-07-29T02:50:12;24.40;84.10
5639;DHT22;2841;44.526;11.360;2022-07-29T02:52:42;24.40;84.10
5639;DHT22;2841;44.526;11.360;2022-07-29T02:55:16;24.40;84.10
5639;DHT22;2841;44.526;11.360;2022-07-29T02:57:47;24.30;84.40
5639;DHT22;2841;44.526;11.360;2022-07-29T03:00:17;24.30;84.60
5639;DHT22;2841;44.526;11.360;2022-07-29T03:02:51;24.30;84.80
5639;DHT22;2841;44.526;11.360;2022-07-29T03:05:20;24.30;84.80
5639;DHT22;2841;44.526;11.360;2022-07-29T03:07:52;24.30;85.00
5639;DHT22;2841;44.526;11.360;2022-07-29T03:10:21;24.40;85.00
5639;DHT22;2841;44.526;11.360;2022-07-29T03:12:50;24.40;85.00
5639;DHT22;2841;44.526;11.360;2022-07-29T03:15:17;24.40;85.00
5639;DHT22;2841;44.526;11.360;2022-07-29T03:17:46;24.40;85.10
5639;DHT22;2841;44.526;11.360;2022-07-29T03:20:14;24.40;84.90
5639;DHT22;2841;44.526;11.360;2022-07-29T03:22:42;24.40;85.10
5639;DHT22;2841;44.526;11.360;2022-07-29T03:25:13;24.40;85.20
5639;DHT22;2841;44.526;11.360;2022-07-29T03:27:40;24.40;85.20
5639;DHT22;2841;44.526;11.360;2022-07-29T03:30:08;24.40;85.30
5639;DHT22;2841;44.526;11.360;2022-07-29T03:32:36;24.40;85.30
5639;DHT22;2841;44.526;11.360;2022-07-29T03:35:05;24.40;85.30
5639;DHT22;2841;44.526;11.360;2022-07-29T03:37:33;24.40;85.40
5639;DHT22;2841;44.526;11.360;2022-07-29T03:40:04;24.40;85.50
5639;DHT22;2841;44.526;11.360;2022-07-29T03:42:33;24.40;85.50
5639;DHT22;2841;44.526;11.360;2022-07-29T03:45:05;24.30;85.50
5639;DHT22;2841;44.526;11.360;2022-07-29T03:47:35;24.30;85.70
5639;DHT22;2841;44.526;11.360;2022-07-29T03:50:09;24.30;85.90
5639;DHT22;2841;44.526;11.360;2022-07-29T03:52:37;24.40;85.90
5639;DHT22;2841;44.526;11.360;2022-07-29T03:55:06;24.40;85.70
5639;DHT22;2841;44.526;11.360;2022-07-29T03:57:34;24.40;85.60
5639;DHT22;2841;44.526;11.360;2022-07-29T04:00:03;24.50;85.50
5639;DHT22;2841;44.526;11.360;2022-07-29T04:02:31;24.50;85.40
5639;DHT22;2841;44.526;11.360;2022-07-29T04:04:59;24.50;85.30
5639;DHT22;2841;44.526;11.360;2022-07-29T04:07:27;24.60;85.30
5639;DHT22;2841;44.526;11.360;2022-07-29T04:09:55;24.50;85.30
5639;DHT22;2841;44.526;11.360;2022-07-29T04:12:22;24.60;85.30
5639;DHT22;2841;44.526;11.360;2022-07-29T04:14:49;24.50;85.20
5639;DHT22;2841;44.526;11.360;2022-07-29T04:17:16;24.50;85.10
5639;DHT22;2841;44.526;11.360;2022-07-29T04:19:43;24.40;85.20
5639;DHT22;2841;44.526;11.360;2022-07-29T04:22:10;24.30;85.30
5639;DHT22;2841;44.526;11.360;2022-07-29T04:24:38;24.30;85.50
5639;DHT22;2841;44.526;11.360;2022-07-29T04:27:05;24.30;86.20
5639;DHT22;2841;44.526;11.360;2022-07-29T04:29:32;24.20;85.60
5639;DHT22;2841;44.526;11.360;2022-07-29T04:31:59;24.10;85.80
5639;DHT22;2841;44.526;11.360;2022-07-29T04:34:26;24.10;85.90
5639;DHT22;2841;44.526;11.360;2022-07-29T04:36:53;24.10;86.20
5639;DHT22;2841;44.526;11.360;2022-07-29T04:39:20;24.10;86.50
5639;DHT22;2841;44.526;11.360;2022-07-29T04:41:49;24.10;86.60
5639;DHT22;2841;44.526;11.360;2022-07-29T04:44:16;24.10;86.70
5639;DHT22;2841;44.526;11.360;2022-07-29T04:46:44;24.20;86.80
5639;DHT22;2841;44.526;11.360;2022-07-29T04:49:11;24.20;86.90
5639;DHT22;2841;44.526;11.360;2022-07-29T04:51:38;24.20;86.80
5639;DHT22;2841;44.526;11.360;2022-07-29T04:54:05;24.10;86.80
5639;DHT22;2841;44.526;11.360;2022-07-29T04:56:33;24.10;87.10
5639;DHT22;2841;44.526;11.360;2022-07-29T04:59:01;24.20;87.40
5639;DHT22;2841;44.526;11.360;2022-07-29T05:01:28;24.20;87.40
5639;DHT22;2841;44.526;11.360;2022-07-29T05:03:55;24.20;87.30
5639;DHT22;2841;44.526;11.360;2022-07-29T05:06:22;24.20;87.30
5639;DHT22;2841;44.526;11.360;2022-07-29T05:08:49;24.10;87.50
5639;DHT22;2841;44.526;11.360;2022-07-29T05:11:16;24.20;88.10
5639;DHT22;2841;44.526;11.360;2022-07-29T05:13:43;24.30;88.00
5639;DHT22;2841;44.526;11.360;2022-07-29T05:16:12;24.40;87.90
5639;DHT22;2841;44.526;11.360;2022-07-29T05:18:39;24.40;87.90
5639;DHT22;2841;44.526;11.360;2022-07-29T05:21:06;24.50;87.90
5639;DHT22;2841;44.526;11.360;2022-07-29T05:23:32;24.50;87.60
5639;DHT22;2841;44.526;11.360;2022-07-29T05:25:59;24.40;87.30
5639;DHT22;2841;44.526;11.360;2022-07-29T05:28:27;24.30;87.40
5639;DHT22;2841;44.526;11.360;2022-07-29T05:30:54;24.30;87.50
5639;DHT22;2841;44.526;11.360;2022-07-29T05:33:23;24.30;87.40
5639;DHT22;2841;44.526;11.360;2022-07-29T05:35:50;24.20;87.50
5639;DHT22;2841;44.526;11.360;2022-07-29T05:38:17;24.10;87.60
5639;DHT22;2841;44.526;11.360;2022-07-29T05:40:43;24.10;87.90
5639;DHT22;2841;44.526;11.360;2022-07-29T05:43:10;24.20;88.10
5639;DHT22;2841;44.526;11.360;2022-07-29T05:45:38;24.30;87.90
5639;DHT22;2841;44.526;11.360;2022-07-29T05:48:05;24.40;87.80
5639;DHT22;2841;44.526;11.360;2022-07-29T05:50:34;24.50;87.60
5639;DHT22;2841;44.526;11.360;2022-07-29T05:53:01;24.60;87.20
5639;DHT22;2841;44.526;11.360;2022-07-29T05:55:28;24.60;87.00
5639;DHT22;2841;44.526;11.360;2022-07-29T05:57:55;24.60;86.80
5639;DHT22;2841;44.526;11.360;2022-07-29T06:00:22;24.60;86.40
5639;DHT22;2841;44.526;11.360;2022-07-29T06:02:49;24.60;86.40
5639;DHT22;2841;44.526;11.360;2022-07-29T06:05:17;24.60;86.30
5639;DHT22;2841;44.526;11.360;2022-07-29T06:07:45;24.50;86.30
5639;DHT22;2841;44.526;11.360;2022-07-29T06:10:12;24.50;86.30
5639;DHT22;2841;44.526;11.360;2022-07-29T06:12:39;24.50;86.40
5639;DHT22;2841;44.526;11.360;2022-07-29T06:15:07;24.60;86.40
5639;DHT22;2841;44.526;11.360;2022-07-29T06:17:35;24.80;86.20
5639;DHT22;2841;44.526;11.360;2022-07-29T06:20:03;24.80;85.60
5639;DHT22;2841;44.526;11.360;2022-07-29T06:22:30;24.90;85.40
5639;DHT22;2841;44.526;11.360;2022-07-29T06:24:58;25.00;85.10
5639;DHT22;2841;44.526;11.360;2022-07-29T06:27:26;25.10;85.00
5639;DHT22;2841;44.526;11.360;2022-07-29T06:29:53;25.20;84.60
5639;DHT22;2841;44.526;11.360;2022-07-29T06:32:19;25.30;84.30
5639;DHT22;2841;44.526;11.360;2022-07-29T06:34:47;25.40;84.10
5639;DHT22;2841;44.526;11.360;2022-07-29T06:37:14;25.40;83.40
5639;DHT22;2841;44.526;11.360;2022-07-29T06:39:42;25.40;82.70
5639;DHT22;2841;44.526;11.360;2022-07-29T06:42:10;25.40;82.60
5639;DHT22;2841;44.526;11.360;2022-07-29T06:44:37;25.50;82.70
5639;DHT22;2841;44.526;11.360;2022-07-29T06:47:04;25.60;82.40
5639;DHT22;2841;44.526;11.360;2022-07-29T06:49:31;25.60;82.00
5639;DHT22;2841;44.526;11.360;2022-07-29T06:51:58;25.70;81.50
5639;DHT22;2841;44.526;11.360;2022-07-29T06:54:25;25.70;81.30
5639;DHT22;2841;44.526;11.360;2022-07-29T06:56:52;25.70;81.00
5639;DHT22;2841;44.526;11.360;2022-07-29T06:59:21;25.80;80.90
5639;DHT22;2841;44.526;11.360;2022-07-29T07:01:48;25.90;80.50
5639;DHT22;2841;44.526;11.360;2022-07-29T07:04:15;26.00;80.20
5639;DHT22;2841;44.526;11.360;2022-07-29T07:06:42;26.10;79.60
5639;DHT22;2841;44.526;11.360;2022-07-29T07:09:09;26.00;79.20
5639;DHT22;2841;44.526;11.360;2022-07-29T07:11:36;26.00;79.00
5639;DHT22;2841;44.526;11.360;2022-07-29T07:14:03;26.10;79.00
5639;DHT22;2841;44.526;11.360;2022-07-29T07:16:31;26.20;78.80
5639;DHT22;2841;44.526;11.360;2022-07-29T07:18:58;26.20;78.50
5639;DHT22;2841;44.526;11.360;2022-07-29T07:21:25;26.30;78.50
5639;DHT22;2841;44.526;11.360;2022-07-29T07:23:52;26.40;77.90
5639;DHT22;2841;44.526;11.360;2022-07-29T07:26:19;26.40;77.50
5639;DHT22;2841;44.526;11.360;2022-07-29T07:28:47;26.50;77.20
5639;DHT22;2841;44.526;11.360;2022-07-29T07:31:13;26.50;77.20
5639;DHT22;2841;44.526;11.360;2022-07-29T07:33:42;26.50;77.00
5639;DHT22;2841;44.526;11.360;2022-07-29T07:36:09;26.60;76.70
5639;DHT22;2841;44.526;11.360;2022-07-29T07:38:36;26.60;76.40
5639;DHT22;2841;44.526;11.360;2022-07-29T07:41:03;26.70;76.20
5639;DHT22;2841;44.526;11.360;2022-07-29T07:43:30;26.80;76.00
5639;DHT22;2841;44.526;11.360;2022-07-29T07:45:58;26.90;75.70
5639;DHT22;2841;44.526;11.360;2022-07-29T07:48:25;27.00;75.40
5639;DHT22;2841;44.526;11.360;2022-07-29T07:50:53;27.00;75.00
5639;DHT22;2841;44.526;11.360;2022-07-29T07:53:20;27.00;74.90
5639;DHT22;2841;44.526;11.360;2022-07-29T07:55:47;27.20;74.80
5639;DHT22;2841;44.526;11.360;2022-07-29T07:58:14;27.30;74.70
5639;DHT22;2841;44.526;11.360;2022-07-29T08:00:41;27.50;74.40
5639;DHT22;2841;44.526;11.360;2022-07-29T08:03:09;27.60;73.80
5639;DHT22;2841;44.526;11.360;2022-07-29T08:05:38;27.60;73.70
5639;DHT22;2841;44.526;11.360;2022-07-29T08:08:07;27.60;73.60
5639;DHT22;2841;44.526;11.360;2022-07-29T08:10:34;27.70;73.60
5639;DHT22;2841;44.526;11.360;2022-07-29T08:13:27;27.80;73.40
5639;DHT22;2841;44.526;11.360;2022-07-29T08:15:55;27.80;72.80
5639;DHT22;2841;44.526;11.360;2022-07-29T08:18:27;27.90;72.70
5639;DHT22;2841;44.526;11.360;2022-07-29T08:20:55;28.00;72.50
5639;DHT22;2841;44.526;11.360;2022-07-29T08:23:23;28.10;72.30
5639;DHT22;2841;44.526;11.360;2022-07-29T08:25:52;28.20;72.10
5639;DHT22;2841;44.526;11.360;2022-07-29T08:28:19;28.20;71.90
5639;DHT22;2841;44.526;11.360;2022-07-29T08:30:46;28.30;71.70
5639;DHT22;2841;44.526;11.360;2022-07-29T08:33:13;28.40;71.60
5639;DHT22;2841;44.526;11.360;2022-07-29T08:35:40;28.50;71.50
5639;DHT22;2841;44.526;11.360;2022-07-29T08:38:07;28.50;71.10
5639;DHT22;2841;44.526;11.360;2022-07-29T08:40:35;28.70;70.90
5639;DHT22;2841;44.526;11.360;2022-07-29T08:43:05;28.70;70.70
5639;DHT22;2841;44.526;11.360;2022-07-29T08:45:41;28.90;70.60
5639;DHT22;2841;44.526;11.360;2022-07-29T08:48:09;28.90;70.10
5639;DHT22;2841;44.526;11.360;2022-07-29T08:50:37;29.00;70.10
5639;DHT22;2841;44.526;11.360;2022-07-29T08:53:05;29.10;69.90
5639;DHT22;2841;44.526;11.360;2022-07-29T08:55:35;29.20;69.60
5639;DHT22;2841;44.526;11.360;2022-07-29T08:58:02;29.20;69.50
5639;DHT22;2841;44.526;11.360;2022-07-29T09:00:29;29.30;69.30
5639;DHT22;2841;44.526;11.360;2022-07-29T09:02:57;29.40;69.40
5639;DHT22;2841;44.526;11.360;2022-07-29T09:05:26;29.50;69.20
5639;DHT22;2841;44.526;11.360;2022-07-29T09:07:53;29.60;69.00
5639;DHT22;2841;44.526;11.360;2022-07-29T09:10:20;29.70;68.70
5639;DHT22;2841;44.526;11.360;2022-07-29T09:12:49;29.70;68.50
5639;DHT22;2841;44.526;11.360;2022-07-29T09:15:17;29.90;68.30
5639;DHT22;2841;44.526;11.360;2022-07-29T09:17:46;30.00;68.00
5639;DHT22;2841;44.526;11.360;2022-07-29T09:20:15;30.10;67.80
5639;DHT22;2841;44.526;11.360;2022-07-29T09:22:43;30.10;67.10
5639;DHT22;2841;44.526;11.360;2022-07-29T09:25:14;30.10;67.10
5639;DHT22;2841;44.526;11.360;2022-07-29T09:27:51;30.20;67.20
5639;DHT22;2841;44.526;11.360;2022-07-29T09:30:18;30.40;66.80
5639;DHT22;2841;44.526;11.360;2022-07-29T09:32:55;30.60;66.40
5639;DHT22;2841;44.526;11.360;2022-07-29T09:35:25;30.80;65.80
5639;DHT22;2841;44.526;11.360;2022-07-29T09:37:52;31.00;65.50
5639;DHT22;2841;44.526;11.360;2022-07-29T09:40:21;31.10;64.90
5639;DHT22;2841;44.526;11.360;2022-07-29T09:42:48;31.20;64.40
5639;DHT22;2841;44.526;11.360;2022-07-29T09:45:28;31.20;64.00
5639;DHT22;2841;44.526;11.360;2022-07-29T09:47:56;31.30;63.40
5639;DHT22;2841;44.526;11.360;2022-07-29T09:50:35;31.40;63.00
5639;DHT22;2841;44.526;11.360;2022-07-29T09:53:02;31.60;62.40
5639;DHT22;2841;44.526;11.360;2022-07-29T09:55:30;31.70;61.90
5639;DHT22;2841;44.526;11.360;2022-07-29T09:58:15;31.80;61.70
5639;DHT22;2841;44.526;11.360;2022-07-29T10:00:45;32.00;60.90
5639;DHT22;2841;44.526;11.360;2022-07-29T10:03:12;32.10;60.50
5639;DHT22;2841;44.526;11.360;2022-07-29T10:05:39;32.00;59.70
5639;DHT22;2841;44.526;11.360;2022-07-29T10:08:07;32.00;59.50
5639;DHT22;2841;44.526;11.360;2022-07-29T10:10:37;32.10;59.30
5639;DHT22;2841;44.526;11.360;2022-07-29T10:13:05;32.20;59.00
5639;DHT22;2841;44.526;11.360;2022-07-29T10:15:34;32.30;58.70
5639;DHT22;2841;44.526;11.360;2022-07-29T10:18:06;32.40;58.10
5639;DHT22;2841;44.526;11.360;2022-07-29T10:20:34;32.50;57.80
5639;DHT22;2841;44.526;11.360;2022-07-29T10:23:01;32.50;57.60
5639;DHT22;2841;44.526;11.360;2022-07-29T10:25:29;32.60;57.40
5639;DHT22;2841;44.526;11.360;2022-07-29T10:27:56;32.70;57.20
5639;DHT22;2841;44.526;11.360;2022-07-29T10:30:24;32.80;56.70
5639;DHT22;2841;44.526;11.360;2022-07-29T10:33:10;32.90;56.20
5639;DHT22;2841;44.526;11.360;2022-07-29T10:36:05;32.90;55.90
5639;DHT22;2841;44.526;11.360;2022-07-29T10:38:45;33.00;55.70
5639;DHT22;2841;44.526;11.360;2022-07-29T10:44:17;33.30;55.30
5639;DHT22;2841;44.526;11.360;2022-07-29T10:46:45;33.50;54.90
5639;DHT22;2841;44.526;11.360;2022-07-29T10:49:15;33.60;54.60
5639;DHT22;2841;44.526;11.360;2022-07-29T10:52:00;33.80;54.40
5639;DHT22;2841;44.526;11.360;2022-07-29T10:57:27;33.60;53.80
5639;DHT22;2841;44.526;11.360;2022-07-29T11:00:27;33.70;53.70
5639;DHT22;2841;44.526;11.360;2022-07-29T11:02:54;33.80;53.30
5639;DHT22;2841;44.526;11.360;2022-07-29T11:05:25;34.00;53.00
5639;DHT22;2841;44.526;11.360;2022-07-29T11:08:17;34.10;52.70
5639;DHT22;2841;44.526;11.360;2022-07-29T11:10:45;34.30;52.40
5639;DHT22;2841;44.526;11.360;2022-07-29T11:13:13;34.50;52.30
5639;DHT22;2841;44.526;11.360;2022-07-29T11:16:00;34.60;51.90
5639;DHT22;2841;44.526;11.360;2022-07-29T11:18:27;34.80;51.60
5639;DHT22;2841;44.526;11.360;2022-07-29T11:20:56;34.80;51.30
5639;DHT22;2841;44.526;11.360;2022-07-29T11:23:25;34.80;51.20
5639;DHT22;2841;44.526;11.360;2022-07-29T11:26:18;34.80;50.70
5639;DHT22;2841;44.526;11.360;2022-07-29T11:28:53;34.70;50.50
5639;DHT22;2841;44.526;11.360;2022-07-29T11:31:36;34.80;50.40
5639;DHT22;2841;44.526;11.360;2022-07-29T11:34:21;34.90;50.00
5639;DHT22;2841;44.526;11.360;2022-07-29T11:37:20;35.10;49.90
5639;DHT22;2841;44.526;11.360;2022-07-29T11:40:15;35.50;49.50
5639;DHT22;2841;44.526;11.360;2022-07-29T11:42:48;35.50;49.10
5639;DHT22;2841;44.526;11.360;2022-07-29T11:45:26;35.80;48.90
5639;DHT22;2841;44.526;11.360;2022-07-29T11:47:58;35.90;48.10
5639;DHT22;2841;44.526;11.360;2022-07-29T11:50:34;35.80;48.00
5639;DHT22;2841;44.526;11.360;2022-07-29T11:53:05;35.90;47.80
5639;DHT22;2841;44.526;11.360;2022-07-29T11:55:37;36.00;47.40
5639;DHT22;2841;44.526;11.360;2022-07-29T11:58:05;36.30;47.10
5639;DHT22;2841;44.526;11.360;2022-07-29T12:00:34;36.60;46.50
5639;DHT22;2841;44.526;11.360;2022-07-29T12:03:04;37.00;46.10
5639;DHT22;2841;44.526;11.360;2022-07-29T12:05:35;37.30;45.70
5639;DHT22;2841;44.526;11.360;2022-07-29T12:08:12;37.50;45.20
5639;DHT22;2841;44.526;11.360;2022-07-29T12:10:41;37.80;44.70
5639;DHT22;2841;44.526;11.360;2022-07-29T12:13:09;38.00;44.50
5639;DHT22;2841;44.526;11.360;2022-07-29T12:15:36;37.90;44.00
5639;DHT22;2841;44.526;11.360;2022-07-29T12:18:14;37.70;43.80
5639;DHT22;2841;44.526;11.360;2022-07-29T12:20:42;37.80;43.80
5639;DHT22;2841;44.526;11.360;2022-07-29T12:23:11;38.00;43.60
5639;DHT22;2841;44.526;11.360;2022-07-29T12:25:40;38.10;43.30
5639;DHT22;2841;44.526;11.360;2022-07-29T12:28:09;38.30;43.20
5639;DHT22;2841;44.526;11.360;2022-07-29T12:30:47;38.50;42.80
5639;DHT22;2841;44.526;11.360;2022-07-29T12:33:20;38.50;42.70
5639;DHT22;2841;44.526;11.360;2022-07-29T12:35:50;38.50;42.60
5639;DHT22;2841;44.526;11.360;2022-07-29T12:38:19;38.60;42.60
5639;DHT22;2841;44.526;11.360;2022-07-29T12:40:47;38.70;42.50
5639;DHT22;2841;44.526;11.360;2022-07-29T12:43:15;38.80;42.20
5639;DHT22;2841;44.526;11.360;2022-07-29T12:45:45;38.90;42.10
5639;DHT22;2841;44.526;11.360;2022-07-29T12:48:13;39.00;41.90
5639;DHT22;2841;44.526;11.360;2022-07-29T12:50:57;38.50;41.90
5639;DHT22;2841;44.526;11.360;2022-07-29T12:53:26;37.50;42.70
5639;DHT22;2841;44.526;11.360;2022-07-29T12:55:55;36.90;43.50
5639;DHT22;2841;44.526;11.360;2022-07-29T12:58:27;36.10;44.50
5639;DHT22;2841;44.526;11.360;2022-07-29T13:01:02;35.60;45.30
5639;DHT22;2841;44.526;11.360;2022-07-29T13:03:42;35.10;45.90
5639;DHT22;2841;44.526;11.360;2022-07-29T13:06:31;35.50;45.80
5639;DHT22;2841;44.526;11.360;2022-07-29T13:09:06;36.40;45.00
5639;DHT22;2841;44.526;11.360;2022-07-29T13:11:35;37.10;44.10
5639;DHT22;2841;44.526;11.360;2022-07-29T13:14:04;37.60;43.50
5639;DHT22;2841;44.526;11.360;2022-07-29T13:16:31;37.30;43.60
5639;DHT22;2841;44.526;11.360;2022-07-29T13:19:09;36.70;44.30
5639;DHT22;2841;44.526;11.360;2022-07-29T13:21:38;36.80;44.80
5639;DHT22;2841;44.526;11.360;2022-07-29T13:24:07;37.50;44.20
5639;DHT22;2841;44.526;11.360;2022-07-29T13:26:35;37.70;43.80
5639;DHT22;2841;44.526;11.360;2022-07-29T13:29:06;37.90;43.60
5639;DHT22;2841;44.526;11.360;2022-07-29T13:31:33;37.80;43.70
5639;DHT22;2841;44.526;11.360;2022-07-29T13:34:00;37.80;43.90
5639;DHT22;2841;44.526;11.360;2022-07-29T13:36:27;37.50;44.00
5639;DHT22;2841;44.526;11.360;2022-07-29T13:38:54;37.00;44.60
5639;DHT22;2841;44.526;11.360;2022-07-29T13:41:22;36.50;45.20
5639;DHT22;2841;44.526;11.360;2022-07-29T13:43:49;36.20;45.80
5639;DHT22;2841;44.526;11.360;2022-07-29T13:46:16;35.80;46.10
5639;DHT22;2841;44.526;11.360;2022-07-29T13:48:43;35.50;46.50
5639;DHT22;2841;44.526;11.360;2022-07-29T13:51:10;35.30;46.90
5639;DHT22;2841;44.526;11.360;2022-07-29T13:53:37;35.20;47.10
5639;DHT22;2841;44.526;11.360;2022-07-29T13:56:04;35.20;47.10
5639;DHT22;2841;44.526;11.360;2022-07-29T13:58:34;35.10;47.20
5639;DHT22;2841;44.526;11.360;2022-07-29T14:01:01;35.30;47.20
5639;DHT22;2841;44.526;11.360;2022-07-29T14:03:28;36.10;46.50
5639;DHT22;2841;44.526;11.360;2022-07-29T14:05:56;36.40;46.00
5639;DHT22;2841;44.526;11.360;2022-07-29T14:08:25;36.70;45.80
5639;DHT22;2841;44.526;11.360;2022-07-29T14:10:52;37.40;45.10
5639;DHT22;2841;44.526;11.360;2022-07-29T14:13:19;38.20;44.30
5639;DHT22;2841;44.526;11.360;2022-07-29T14:15:47;38.40;43.70
5639;DHT22;2841;44.526;11.360;2022-07-29T14:18:14;38.60;44.30
5639;DHT22;2841;44.526;11.360;2022-07-29T14:20:41;38.80;43.40
5639;DHT22;2841;44.526;11.360;2022-07-29T14:23:08;38.80;43.10
5639;DHT22;2841;44.526;11.360;2022-07-29T14:25:35;38.50;43.30
5639;DHT22;2841;44.526;11.360;2022-07-29T14:28:03;37.70;44.00
5639;DHT22;2841;44.526;11.360;2022-07-29T14:30:30;36.90;44.90
5639;DHT22;2841;44.526;11.360;2022-07-29T14:32:58;36.20;45.80
5639;DHT22;2841;44.526;11.360;2022-07-29T14:35:25;35.70;46.50
5639;DHT22;2841;44.526;11.360;2022-07-29T14:37:52;35.30;47.00
5639;DHT22;2841;44.526;11.360;2022-07-29T14:40:19;34.90;47.50
5639;DHT22;2841;44.526;11.360;2022-07-29T14:42:46;34.60;48.20
5639;DHT22;2841;44.526;11.360;2022-07-29T14:45:13;34.30;48.80
5639;DHT22;2841;44.526;11.360;2022-07-29T14:47:40;34.00;49.30
5639;DHT22;2841;44.526;11.360;2022-07-29T14:50:09;33.80;49.70
5639;DHT22;2841;44.526;11.360;2022-07-29T14:52:36;33.60;50.20
5639;DHT22;2841;44.526;11.360;2022-07-29T14:55:04;33.50;50.50
5639;DHT22;2841;44.526;11.360;2022-07-29T14:57:31;33.40;50.80
5639;DHT22;2841;44.526;11.360;2022-07-29T14:59:58;33.40;50.90
5639;DHT22;2841;44.526;11.360;2022-07-29T15:02:25;33.30;51.00
5639;DHT22;2841;44.526;11.360;2022-07-29T15:04:51;33.20;51.00
5639;DHT22;2841;44.526;11.360;2022-07-29T15:07:20;33.10;51.10
5639;DHT22;2841;44.526;11.360;2022-07-29T15:09:47;33.00;51.20
5639;DHT22;2841;44.526;11.360;2022-07-29T15:12:14;33.00;51.20
5639;DHT22;2841;44.526;11.360;2022-07-29T15:14:41;32.90;51.20
5639;DHT22;2841;44.526;11.360;2022-07-29T15:17:08;32.80;51.60
5639;DHT22;2841;44.526;11.360;2022-07-29T15:19:35;32.70;52.10
5639;DHT22;2841;44.526;11.360;2022-07-29T15:22:02;32.60;52.90
5639;DHT22;2841;44.526;11.360;2022-07-29T15:24:31;32.30;54.00
5639;DHT22;2841;44.526;11.360;2022-07-29T15:26:58;32.00;55.30
5639;DHT22;2841;44.526;11.360;2022-07-29T15:29:25;31.70;56.60
5639;DHT22;2841;44.526;11.360;2022-07-29T15:31:52;31.40;57.80
5639;DHT22;2841;44.526;11.360;2022-07-29T15:34:19;31.10;58.80
5639;DHT22;2841;44.526;11.360;2022-07-29T15:36:49;31.00;59.50
5639;DHT22;2841;44.526;11.360;2022-07-29T15:39:16;30.90;60.10
5639;DHT22;2841;44.526;11.360;2022-07-29T15:41:44;30.90;60.50
5639;DHT22;2841;44.526;11.360;2022-07-29T15:44:11;30.90;60.80
5639;DHT22;2841;44.526;11.360;2022-07-29T15:46:38;31.00;61.00
5639;DHT22;2841;44.526;11.360;2022-07-29T15:49:22;31.10;61.10
5639;DHT22;2841;44.526;11.360;2022-07-29T15:51:56;31.10;61.10
5639;DHT22;2841;44.526;11.360;2022-07-29T15:54:22;31.10;61.00
5639;DHT22;2841;44.526;11.360;2022-07-29T15:56:51;31.10;60.90
5639;DHT22;2841;44.526;11.360;2022-07-29T15:59:18;31.20;60.90
5639;DHT22;2841;44.526;11.360;2022-07-29T16:01:45;31.30;60.80
5639;DHT22;2841;44.526;11.360;2022-07-29T16:04:12;31.30;60.70
5639;DHT22;2841;44.526;11.360;2022-07-29T16:06:39;31.30;60.60